sensor_id;sensor_type;location;lat;lon;timestamp;pressure;altitude;pressure_sealevel;temperature
49154;BMP280;49455;52.252;9.124;2024-01-27T10:21:16;101547.88;;;4.42
49154;BMP280;49455;52.252;9.124;2024-01-27T10:26:16;101548.59;;;4.56
49154;BMP280;49455;52.252;9.124;2024-01-27T10:31:17;101544.75;;;4.67
49154;BMP280;49455;52.252;9.124;2024-01-27T10:36:17;101538.03;;;4.80
49154;BMP280;49455;52.252;9.124;2024-01-27T10:41:22;101528.81;;;4.87
49154;BMP280;49455;52.252;9.124;2024-01-27T10:46:23;101519.72;;;5.04
49154;BMP280;49455;52.252;9.124;2024-01-27T10:51:31;101533.81;;;5.15
49154;BMP280;49455;52.252;9.124;2024-01-27T10:56:32;101516.66;;;5.32
49154;BMP280;49455;52.252;9.124;2024-01-27T11:01:33;101502.31;;;5.40
49154;BMP280;49455;52.252;9.124;2024-01-27T11:06:35;101511.88;;;5.56
49154;BMP280;49455;52.252;9.124;2024-01-27T11:11:37;101512.50;;;5.62
49154;BMP280;49455;52.252;9.124;2024-01-27T11:16:38;101520.97;;;5.71
49154;BMP280;49455;52.252;9.124;2024-01-27T11:21:39;101520.06;;;5.75
49154;BMP280;49455;52.252;9.124;2024-01-27T11:26:40;101516.91;;;6.04
49154;BMP280;49455;52.252;9.124;2024-01-27T11:31:40;101510.09;;;6.16
49154;BMP280;49455;52.252;9.124;2024-01-27T11:36:41;101516.00;;;6.17
49154;BMP280;49455;52.252;9.124;2024-01-27T11:41:41;101520.38;;;6.25
49154;BMP280;49455;52.252;9.124;2024-01-27T11:46:42;101523.72;;;6.34
49154;BMP280;49455;52.252;9.124;2024-01-27T11:51:42;101517.19;;;6.45
49154;BMP280;49455;52.252;9.124;2024-01-27T11:56:43;101532.59;;;6.62
49154;BMP280;49455;52.252;9.124;2024-01-27T12:01:43;101539.38;;;6.67
49154;BMP280;49455;52.252;9.124;2024-01-27T12:06:44;101530.69;;;6.88
49154;BMP280;49455;52.252;9.124;2024-01-27T12:11:44;101544.84;;;7.11
49154;BMP280;49455;52.252;9.124;2024-01-27T12:16:45;101531.47;;;7.18
49154;BMP280;49455;52.252;9.124;2024-01-27T12:21:49;101540.06;;;7.30
49154;BMP280;49455;52.252;9.124;2024-01-27T12:26:49;101546.50;;;7.36
49154;BMP280;49455;52.252;9.124;2024-01-27T12:31:50;101536.84;;;7.33
49154;BMP280;49455;52.252;9.124;2024-01-27T12:36:52;101542.38;;;7.23
49154;BMP280;49455;52.252;9.124;2024-01-27T12:41:52;101542.50;;;7.47
49154;BMP280;49455;52.252;9.124;2024-01-27T12:46:53;101536.19;;;7.45
49154;BMP280;49455;52.252;9.124;2024-01-27T12:51:53;101529.31;;;7.49
49154;BMP280;49455;52.252;9.124;2024-01-27T12:56:54;101523.38;;;7.57
49154;BMP280;49455;52.252;9.124;2024-01-27T13:01:55;101514.69;;;7.61
49154;BMP280;49455;52.252;9.124;2024-01-27T13:06:55;101516.75;;;7.47
49154;BMP280;49455;52.252;9.124;2024-01-27T13:11:56;101522.03;;;7.51
49154;BMP280;49455;52.252;9.124;2024-01-27T13:16:56;101505.59;;;7.64
49154;BMP280;49455;52.252;9.124;2024-01-27T13:21:57;101509.16;;;7.71
49154;BMP280;49455;52.252;9.124;2024-01-27T13:26:57;101517.75;;;7.75
49154;BMP280;49455;52.252;9.124;2024-01-27T13:31:58;101513.75;;;7.66
49154;BMP280;49455;52.252;9.124;2024-01-27T13:36:58;101513.13;;;7.48
49154;BMP280;49455;52.252;9.124;2024-01-27T13:41:59;101511.66;;;7.39
49154;BMP280;49455;52.252;9.124;2024-01-27T13:46:59;101518.81;;;7.33
49154;BMP280;49455;52.252;9.124;2024-01-27T13:52:00;101524.16;;;7.28
49154;BMP280;49455;52.252;9.124;2024-01-27T13:57:01;101527.78;;;7.36
49154;BMP280;49455;52.252;9.124;2024-01-27T14:02:03;101526.81;;;7.40
49154;BMP280;49455;52.252;9.124;2024-01-27T14:07:05;101512.25;;;7.44
49154;BMP280;49455;52.252;9.124;2024-01-27T14:12:06;101533.63;;;7.36
49154;BMP280;49455;52.252;9.124;2024-01-27T14:17:07;101525.78;;;7.33
49154;BMP280;49455;52.252;9.124;2024-01-27T14:22:08;101517.97;;;7.21
49154;BMP280;49455;52.252;9.124;2024-01-27T14:27:08;101530.00;;;7.08
49154;BMP280;49455;52.252;9.124;2024-01-27T14:32:09;101529.59;;;6.98
49154;BMP280;49455;52.252;9.124;2024-01-27T14:37:09;101519.22;;;6.86
49154;BMP280;49455;52.252;9.124;2024-01-27T14:42:10;101513.66;;;6.75
49154;BMP280;49455;52.252;9.124;2024-01-27T14:47:10;101517.78;;;6.59
49154;BMP280;49455;52.252;9.124;2024-01-27T14:52:11;101524.00;;;6.50
49154;BMP280;49455;52.252;9.124;2024-01-27T14:57:12;101517.03;;;6.41
49154;BMP280;49455;52.252;9.124;2024-01-27T15:02:12;101532.94;;;6.35
49154;BMP280;49455;52.252;9.124;2024-01-27T15:07:13;101529.00;;;6.29
49154;BMP280;49455;52.252;9.124;2024-01-27T15:12:13;101527.97;;;6.21
49154;BMP280;49455;52.252;9.124;2024-01-27T15:17:14;101528.41;;;6.15
49154;BMP280;49455;52.252;9.124;2024-01-27T15:22:14;101527.19;;;6.04
49154;BMP280;49455;52.252;9.124;2024-01-27T15:27:15;101538.41;;;5.91
49154;BMP280;49455;52.252;9.124;2024-01-27T15:32:15;101534.44;;;5.85
49154;BMP280;49455;52.252;9.124;2024-01-27T15:37:16;101527.91;;;5.70
49154;BMP280;49455;52.252;9.124;2024-01-27T15:42:17;101533.19;;;5.57
49154;BMP280;49455;52.252;9.124;2024-01-27T15:47:17;101535.00;;;5.48
49154;BMP280;49455;52.252;9.124;2024-01-27T15:52:18;101540.38;;;5.38
49154;BMP280;49455;52.252;9.124;2024-01-27T15:57:19;101550.94;;;5.28
49154;BMP280;49455;52.252;9.124;2024-01-27T16:02:19;101536.84;;;5.17
49154;BMP280;49455;52.252;9.124;2024-01-27T16:07:20;101543.28;;;5.06
49154;BMP280;49455;52.252;9.124;2024-01-27T16:12:20;101545.63;;;4.93
49154;BMP280;49455;52.252;9.124;2024-01-27T16:17:21;101541.34;;;4.80
49154;BMP280;49455;52.252;9.124;2024-01-27T16:22:21;101549.91;;;4.76
49154;BMP280;49455;52.252;9.124;2024-01-27T16:27:22;101542.44;;;4.88
49154;BMP280;49455;52.252;9.124;2024-01-27T16:32:22;101558.47;;;4.71
49154;BMP280;49455;52.252;9.124;2024-01-27T16:37:23;101556.81;;;4.67
49154;BMP280;49455;52.252;9.124;2024-01-27T16:42:23;101564.63;;;4.62
49154;BMP280;49455;52.252;9.124;2024-01-27T16:47:24;101549.22;;;4.62
49154;BMP280;49455;52.252;9.124;2024-01-27T16:52:24;101546.00;;;4.56
49154;BMP280;49455;52.252;9.124;2024-01-27T16:57:24;101557.19;;;4.60
49154;BMP280;49455;52.252;9.124;2024-01-27T17:02:25;101562.09;;;4.48
49154;BMP280;49455;52.252;9.124;2024-01-27T17:07:26;101562.91;;;4.57
49154;BMP280;49455;52.252;9.124;2024-01-27T17:12:26;101559.75;;;4.60
49154;BMP280;49455;52.252;9.124;2024-01-27T17:17:26;101560.63;;;4.56
49154;BMP280;49455;52.252;9.124;2024-01-27T17:22:27;101557.91;;;4.52
49154;BMP280;49455;52.252;9.124;2024-01-27T17:27:28;101551.38;;;4.46
49154;BMP280;49455;52.252;9.124;2024-01-27T17:32:29;101555.00;;;4.45
49154;BMP280;49455;52.252;9.124;2024-01-27T17:37:30;101561.38;;;4.34
49154;BMP280;49455;52.252;9.124;2024-01-27T17:42:32;101561.03;;;4.27
49154;BMP280;49455;52.252;9.124;2024-01-27T17:47:34;101559.06;;;4.11
49154;BMP280;49455;52.252;9.124;2024-01-27T17:52:36;101566.75;;;4.11
49154;BMP280;49455;52.252;9.124;2024-01-27T17:57:37;101563.88;;;4.12
49154;BMP280;49455;52.252;9.124;2024-01-27T18:02:37;101552.78;;;4.17
49154;BMP280;49455;52.252;9.124;2024-01-27T18:07:38;101557.38;;;4.06
49154;BMP280;49455;52.252;9.124;2024-01-27T18:12:38;101559.63;;;3.94
49154;BMP280;49455;52.252;9.124;2024-01-27T18:17:39;101566.03;;;3.83
49154;BMP280;49455;52.252;9.124;2024-01-27T18:22:39;101575.81;;;3.81
49154;BMP280;49455;52.252;9.124;2024-01-27T18:27:40;101565.09;;;3.79
49154;BMP280;49455;52.252;9.124;2024-01-27T18:32:40;101574.94;;;3.72
49154;BMP280;49455;52.252;9.124;2024-01-27T18:37:41;101582.91;;;3.57
49154;BMP280;49455;52.252;9.124;2024-01-27T18:42:44;101573.22;;;3.54
49154;BMP280;49455;52.252;9.124;2024-01-27T18:47:44;101572.75;;;3.52
49154;BMP280;49455;52.252;9.124;2024-01-27T18:52:45;101590.47;;;3.48
49154;BMP280;49455;52.252;9.124;2024-01-27T18:57:45;101589.44;;;3.49
49154;BMP280;49455;52.252;9.124;2024-01-27T19:02:46;101586.78;;;3.41
49154;BMP280;49455;52.252;9.124;2024-01-27T19:07:46;101597.31;;;3.39
49154;BMP280;49455;52.252;9.124;2024-01-27T19:12:46;101590.94;;;3.37
49154;BMP280;49455;52.252;9.124;2024-01-27T19:17:47;101590.00;;;3.33
49154;BMP280;49455;52.252;9.124;2024-01-27T19:22:47;101579.00;;;3.19
49154;BMP280;49455;52.252;9.124;2024-01-27T19:27:48;101577.47;;;3.18
49154;BMP280;49455;52.252;9.124;2024-01-27T19:32:48;101579.69;;;3.06
49154;BMP280;49455;52.252;9.124;2024-01-27T19:37:49;101584.81;;;3.06
49154;BMP280;49455;52.252;9.124;2024-01-27T19:42:49;101580.03;;;2.99
49154;BMP280;49455;52.252;9.124;2024-01-27T19:47:50;101579.22;;;3.04
49154;BMP280;49455;52.252;9.124;2024-01-27T19:52:50;101575.47;;;2.96
49154;BMP280;49455;52.252;9.124;2024-01-27T19:57:51;101600.56;;;2.94
49154;BMP280;49455;52.252;9.124;2024-01-27T20:02:51;101588.47;;;3.00
49154;BMP280;49455;52.252;9.124;2024-01-27T20:07:52;101578.94;;;3.05
49154;BMP280;49455;52.252;9.124;2024-01-27T20:12:52;101581.91;;;2.94
49154;BMP280;49455;52.252;9.124;2024-01-27T20:17:53;101580.97;;;2.90
49154;BMP280;49455;52.252;9.124;2024-01-27T20:22:53;101585.47;;;2.79
49154;BMP280;49455;52.252;9.124;2024-01-27T20:27:54;101587.25;;;2.79
49154;BMP280;49455;52.252;9.124;2024-01-27T20:32:54;101588.31;;;2.78
49154;BMP280;49455;52.252;9.124;2024-01-27T20:37:55;101581.91;;;2.94
49154;BMP280;49455;52.252;9.124;2024-01-27T20:42:56;101589.94;;;3.06
49154;BMP280;49455;52.252;9.124;2024-01-27T20:47:56;101590.06;;;2.96
49154;BMP280;49455;52.252;9.124;2024-01-27T20:52:57;101593.09;;;2.98
49154;BMP280;49455;52.252;9.124;2024-01-27T20:57:57;101588.53;;;2.95
49154;BMP280;49455;52.252;9.124;2024-01-27T21:02:58;101587.59;;;2.91
49154;BMP280;49455;52.252;9.124;2024-01-27T21:07:58;101585.91;;;3.00
49154;BMP280;49455;52.252;9.124;2024-01-27T21:12:59;101589.94;;;3.06
49154;BMP280;49455;52.252;9.124;2024-01-27T21:17:59;101580.72;;;3.05
49154;BMP280;49455;52.252;9.124;2024-01-27T21:23:00;101583.91;;;2.97
49154;BMP280;49455;52.252;9.124;2024-01-27T21:28:00;101584.00;;;2.92
49154;BMP280;49455;52.252;9.124;2024-01-27T21:33:01;101575.38;;;2.88
49154;BMP280;49455;52.252;9.124;2024-01-27T21:38:01;101571.19;;;2.92
49154;BMP280;49455;52.252;9.124;2024-01-27T21:43:02;101566.09;;;2.92
49154;BMP280;49455;52.252;9.124;2024-01-27T21:48:04;101559.53;;;2.86
49154;BMP280;49455;52.252;9.124;2024-01-27T21:53:04;101549.13;;;2.96
49154;BMP280;49455;52.252;9.124;2024-01-27T21:58:05;101544.84;;;2.91
49154;BMP280;49455;52.252;9.124;2024-01-27T22:03:05;101542.00;;;2.93
49154;BMP280;49455;52.252;9.124;2024-01-27T22:08:06;101546.69;;;2.72
49154;BMP280;49455;52.252;9.124;2024-01-27T22:13:07;101534.41;;;2.56
49154;BMP280;49455;52.252;9.124;2024-01-27T22:18:08;101543.75;;;2.47
49154;BMP280;49455;52.252;9.124;2024-01-27T22:23:08;101531.19;;;2.64
49154;BMP280;49455;52.252;9.124;2024-01-27T22:28:09;101530.03;;;2.75
49154;BMP280;49455;52.252;9.124;2024-01-27T22:33:09;101528.31;;;2.70
49154;BMP280;49455;52.252;9.124;2024-01-27T22:38:10;101518.41;;;2.64
49154;BMP280;49455;52.252;9.124;2024-01-27T22:43:10;101527.41;;;2.61
49154;BMP280;49455;52.252;9.124;2024-01-27T22:48:11;101522.22;;;2.66
49154;BMP280;49455;52.252;9.124;2024-01-27T22:53:14;101523.88;;;2.76
49154;BMP280;49455;52.252;9.124;2024-01-27T22:58:15;101527.25;;;2.71
49154;BMP280;49455;52.252;9.124;2024-01-27T23:03:15;101526.50;;;2.71
49154;BMP280;49455;52.252;9.124;2024-01-27T23:08:16;101515.47;;;2.57
49154;BMP280;49455;52.252;9.124;2024-01-27T23:13:16;101522.13;;;2.58
49154;BMP280;49455;52.252;9.124;2024-01-27T23:18:17;101521.16;;;2.54
49154;BMP280;49455;52.252;9.124;2024-01-27T23:23:17;101515.41;;;2.43
49154;BMP280;49455;52.252;9.124;2024-01-27T23:28:18;101518.19;;;2.47
49154;BMP280;49455;52.252;9.124;2024-01-27T23:33:18;101528.41;;;2.47
49154;BMP280;49455;52.252;9.124;2024-01-27T23:38:18;101522.25;;;2.48
49154;BMP280;49455;52.252;9.124;2024-01-27T23:43:19;101517.47;;;2.41
49154;BMP280;49455;52.252;9.124;2024-01-27T23:48:19;101527.97;;;2.40
49154;BMP280;49455;52.252;9.124;2024-01-27T23:53:20;101522.47;;;2.33
49154;BMP280;49455;52.252;9.124;2024-01-27T23:58:20;101508.81;;;2.23
